sensor_id;sensor_type;location;lat;lon;timestamp;pressure;altitude;pressure_sealevel;temperature;humidity
75942;BME280;64622;46.220;19.878;2023-05-10T00:00:11;100752.13;;;9.30;100.00
75942;BME280;64622;46.220;19.878;2023-05-10T00:02:39;100749.72;;;9.27;100.00
75942;BME280;64622;46.220;19.878;2023-05-10T00:05:07;100749.72;;;9.18;100.00
75942;BME280;64622;46.220;19.878;2023-05-10T00:07:34;100742.09;;;9.13;100.00
75942;BME280;64622;46.220;19.878;2023-05-10T00:10:00;100751.09;;;9.12;100.00
75942;BME280;64622;46.220;19.878;2023-05-10T00:12:27;100746.75;;;9.02;100.00
75942;BME280;64622;46.220;19.878;2023-05-10T00:14:54;100747.44;;;9.04;100.00
75942;BME280;64622;46.220;19.878;2023-05-10T00:17:20;100751.78;;;9.05;100.00
75942;BME280;64622;46.220;19.878;2023-05-10T00:19:47;100742.78;;;8.96;100.00
75942;BME280;64622;46.220;19.878;2023-05-10T00:22:14;100737.28;;;8.88;100.00
75942;BME280;64622;46.220;19.878;2023-05-10T00:24:40;100733.50;;;8.81;100.00
75942;BME280;64622;46.220;19.878;2023-05-10T00:27:07;100737.16;;;8.80;100.00
75942;BME280;64622;46.220;19.878;2023-05-10T00:29:34;100728.03;;;8.83;100.00
75942;BME280;64622;46.220;19.878;2023-05-10T00:32:00;100732.19;;;8.76;100.00
75942;BME280;64622;46.220;19.878;2023-05-10T00:34:27;100719.25;;;8.62;100.00
75942;BME280;64622;46.220;19.878;2023-05-10T00:36:54;100718.84;;;8.66;100.00
75942;BME280;64622;46.220;19.878;2023-05-10T00:39:21;100721.50;;;8.66;100.00
75942;BME280;64622;46.220;19.878;2023-05-10T00:41:48;100722.63;;;8.64;100.00
75942;BME280;64622;46.220;19.878;2023-05-10T00:44:15;100722.75;;;8.62;100.00
75942;BME280;64622;46.220;19.878;2023-05-10T00:46:41;100714.59;;;8.54;100.00
75942;BME280;64622;46.220;19.878;2023-05-10T00:49:08;100709.28;;;8.54;100.00
75942;BME280;64622;46.220;19.878;2023-05-10T00:51:35;100711.78;;;8.56;100.00
75942;BME280;64622;46.220;19.878;2023-05-10T00:54:03;100717.97;;;8.56;100.00
75942;BME280;64622;46.220;19.878;2023-05-10T00:56:30;100703.88;;;8.45;100.00
75942;BME280;64622;46.220;19.878;2023-05-10T00:58:57;100719.34;;;8.51;100.00
75942;BME280;64622;46.220;19.878;2023-05-10T01:01:23;100710.38;;;8.52;100.00
75942;BME280;64622;46.220;19.878;2023-05-10T01:03:51;100700.72;;;8.60;100.00
75942;BME280;64622;46.220;19.878;2023-05-10T01:06:18;100707.03;;;8.59;100.00
75942;BME280;64622;46.220;19.878;2023-05-10T01:08:45;100711.66;;;8.57;100.00
75942;BME280;64622;46.220;19.878;2023-05-10T01:11:12;100707.31;;;8.56;100.00
75942;BME280;64622;46.220;19.878;2023-05-10T01:13:41;100694.09;;;8.55;100.00
75942;BME280;64622;46.220;19.878;2023-05-10T01:16:08;100692.97;;;8.57;100.00
75942;BME280;64622;46.220;19.878;2023-05-10T01:18:41;100691.16;;;8.58;100.00
75942;BME280;64622;46.220;19.878;2023-05-10T01:37:36;100696.75;;;8.45;100.00
75942;BME280;64622;46.220;19.878;2023-05-10T01:40:11;100698.66;;;8.34;100.00
75942;BME280;64622;46.220;19.878;2023-05-10T01:42:46;100693.19;;;8.35;100.00
75942;BME280;64622;46.220;19.878;2023-05-10T01:45:28;100691.47;;;8.25;100.00
75942;BME280;64622;46.220;19.878;2023-05-10T01:48:04;100673.78;;;8.24;100.00
75942;BME280;64622;46.220;19.878;2023-05-10T01:50:34;100679.31;;;8.11;100.00
75942;BME280;64622;46.220;19.878;2023-05-10T01:53:08;100680.16;;;8.12;100.00
75942;BME280;64622;46.220;19.878;2023-05-10T01:55:42;100665.28;;;8.09;100.00
75942;BME280;64622;46.220;19.878;2023-05-10T01:58:14;100672.62;;;8.17;100.00
75942;BME280;64622;46.220;19.878;2023-05-10T02:00:46;100670.00;;;8.05;100.00
75942;BME280;64622;46.220;19.878;2023-05-10T02:03:14;100663.09;;;7.93;100.00
75942;BME280;64622;46.220;19.878;2023-05-10T02:05:43;100667.56;;;7.93;100.00
75942;BME280;64622;46.220;19.878;2023-05-10T02:08:11;100654.22;;;7.83;100.00
75942;BME280;64622;46.220;19.878;2023-05-10T02:10:44;100646.87;;;7.76;100.00
75942;BME280;64622;46.220;19.878;2023-05-10T02:13:12;100657.66;;;7.74;100.00
75942;BME280;64622;46.220;19.878;2023-05-10T02:15:41;100646.41;;;7.62;100.00
75942;BME280;64622;46.220;19.878;2023-05-10T02:18:09;100645.09;;;7.56;100.00
75942;BME280;64622;46.220;19.878;2023-05-10T02:20:37;100655.50;;;7.59;100.00
75942;BME280;64622;46.220;19.878;2023-05-10T02:23:04;100648.47;;;7.58;100.00
75942;BME280;64622;46.220;19.878;2023-05-10T02:25:31;100647.75;;;7.56;100.00
75942;BME280;64622;46.220;19.878;2023-05-10T02:28:00;100648.97;;;7.52;100.00
75942;BME280;64622;46.220;19.878;2023-05-10T02:30:28;100636.19;;;7.46;100.00
75942;BME280;64622;46.220;19.878;2023-05-10T02:32:57;100639.44;;;7.49;100.00
75942;BME280;64622;46.220;19.878;2023-05-10T02:35:26;100646.31;;;7.52;100.00
75942;BME280;64622;46.220;19.878;2023-05-10T02:37:53;100636.84;;;7.38;100.00
75942;BME280;64622;46.220;19.878;2023-05-10T02:40:22;100648.94;;;7.43;100.00
75942;BME280;64622;46.220;19.878;2023-05-10T02:42:52;100646.03;;;7.46;100.00
75942;BME280;64622;46.220;19.878;2023-05-10T02:45:24;100652.28;;;7.44;100.00
75942;BME280;64622;46.220;19.878;2023-05-10T02:47:52;100654.25;;;7.43;100.00
75942;BME280;64622;46.220;19.878;2023-05-10T02:50:21;100653.56;;;7.41;100.00
75942;BME280;64622;46.220;19.878;2023-05-10T02:52:54;100655.75;;;7.36;100.00
75942;BME280;64622;46.220;19.878;2023-05-10T02:55:25;100641.13;;;7.30;100.00
75942;BME280;64622;46.220;19.878;2023-05-10T02:57:59;100654.06;;;7.34;100.00
75942;BME280;64622;46.220;19.878;2023-05-10T03:00:26;100640.56;;;7.27;100.00
75942;BME280;64622;46.220;19.878;2023-05-10T03:02:53;100652.69;;;7.19;100.00
75942;BME280;64622;46.220;19.878;2023-05-10T03:05:20;100660.41;;;7.22;100.00
75942;BME280;64622;46.220;19.878;2023-05-10T03:07:48;100654.06;;;7.14;100.00
75942;BME280;64622;46.220;19.878;2023-05-10T03:10:14;100660.66;;;7.19;100.00
75942;BME280;64622;46.220;19.878;2023-05-10T03:13:01;100655.16;;;7.12;100.00
75942;BME280;64622;46.220;19.878;2023-05-10T03:18:28;100656.63;;;7.04;100.00
75942;BME280;64622;46.220;19.878;2023-05-10T03:20:59;100657.87;;;7.01;100.00
75942;BME280;64622;46.220;19.878;2023-05-10T03:23:35;100664.88;;;7.02;100.00
75942;BME280;64622;46.220;19.878;2023-05-10T03:26:07;100667.78;;;6.98;100.00
75942;BME280;64622;46.220;19.878;2023-05-10T03:28:35;100658.03;;;6.88;100.00
75942;BME280;64622;46.220;19.878;2023-05-10T03:31:04;100654.41;;;6.89;100.00
75942;BME280;64622;46.220;19.878;2023-05-10T03:33:32;100653.19;;;6.93;100.00
75942;BME280;64622;46.220;19.878;2023-05-10T03:35:59;100660.53;;;7.01;100.00
75942;BME280;64622;46.220;19.878;2023-05-10T03:38:26;100652.91;;;6.96;100.00
75942;BME280;64622;46.220;19.878;2023-05-10T03:40:52;100662.09;;;7.03;100.00
75942;BME280;64622;46.220;19.878;2023-05-10T03:43:19;100661.25;;;7.03;100.00
75942;BME280;64622;46.220;19.878;2023-05-10T03:45:46;100652.78;;;6.97;100.00
75942;BME280;64622;46.220;19.878;2023-05-10T03:48:12;100648.69;;;6.93;100.00
75942;BME280;64622;46.220;19.878;2023-05-10T03:50:41;100645.31;;;6.92;100.00
75942;BME280;64622;46.220;19.878;2023-05-10T03:53:07;100642.66;;;6.92;100.00
75942;BME280;64622;46.220;19.878;2023-05-10T03:55:34;100661.38;;;7.01;100.00
75942;BME280;64622;46.220;19.878;2023-05-10T03:58:02;100647.88;;;6.93;100.00
75942;BME280;64622;46.220;19.878;2023-05-10T04:00:29;100657.59;;;7.03;100.00
75942;BME280;64622;46.220;19.878;2023-05-10T04:02:57;100655.97;;;7.12;100.00
75942;BME280;64622;46.220;19.878;2023-05-10T04:05:24;100655.62;;;7.17;100.00
75942;BME280;64622;46.220;19.878;2023-05-10T04:07:51;100654.13;;;7.23;100.00
75942;BME280;64622;46.220;19.878;2023-05-10T04:10:18;100646.00;;;7.25;100.00
75942;BME280;64622;46.220;19.878;2023-05-10T04:12:45;100656.06;;;7.42;100.00
75942;BME280;64622;46.220;19.878;2023-05-10T04:15:12;100656.75;;;7.64;100.00
75942;BME280;64622;46.220;19.878;2023-05-10T04:17:38;100646.66;;;7.88;100.00
75942;BME280;64622;46.220;19.878;2023-05-10T04:20:06;100645.50;;;8.12;100.00
75942;BME280;64622;46.220;19.878;2023-05-10T04:22:32;100651.06;;;8.29;100.00
75942;BME280;64622;46.220;19.878;2023-05-10T04:24:59;100661.25;;;8.54;100.00
75942;BME280;64622;46.220;19.878;2023-05-10T04:27:26;100652.41;;;8.63;100.00
75942;BME280;64622;46.220;19.878;2023-05-10T04:29:53;100662.56;;;8.79;100.00
75942;BME280;64622;46.220;19.878;2023-05-10T04:32:20;100659.44;;;8.83;100.00
75942;BME280;64622;46.220;19.878;2023-05-10T04:34:46;100653.56;;;8.99;100.00
75942;BME280;64622;46.220;19.878;2023-05-10T04:37:13;100650.78;;;9.19;100.00
75942;BME280;64622;46.220;19.878;2023-05-10T04:39:40;100653.28;;;9.30;100.00
75942;BME280;64622;46.220;19.878;2023-05-10T04:42:06;100652.59;;;9.38;100.00
75942;BME280;64622;46.220;19.878;2023-05-10T04:44:33;100655.78;;;9.51;100.00
75942;BME280;64622;46.220;19.878;2023-05-10T04:47:00;100641.97;;;9.65;100.00
75942;BME280;64622;46.220;19.878;2023-05-10T04:49:29;100655.69;;;9.89;100.00
75942;BME280;64622;46.220;19.878;2023-05-10T04:51:56;100647.94;;;10.05;100.00
75942;BME280;64622;46.220;19.878;2023-05-10T04:54:22;100657.41;;;10.26;100.00
75942;BME280;64622;46.220;19.878;2023-05-10T04:56:49;100656.41;;;10.54;100.00
75942;BME280;64622;46.220;19.878;2023-05-10T04:59:16;100656.66;;;10.78;100.00
75942;BME280;64622;46.220;19.878;2023-05-10T05:01:42;100657.44;;;11.06;100.00
75942;BME280;64622;46.220;19.878;2023-05-10T05:04:09;100660.75;;;11.17;99.86
75942;BME280;64622;46.220;19.878;2023-05-10T05:06:36;100654.72;;;11.58;100.00
75942;BME280;64622;46.220;19.878;2023-05-10T05:09:03;100651.25;;;11.83;96.41
75942;BME280;64622;46.220;19.878;2023-05-10T05:11:29;100649.47;;;12.25;97.03
75942;BME280;64622;46.220;19.878;2023-05-10T05:13:56;100652.66;;;12.70;94.25
75942;BME280;64622;46.220;19.878;2023-05-10T05:16:25;100647.16;;;12.96;91.40
75942;BME280;64622;46.220;19.878;2023-05-10T05:18:52;100658.50;;;13.31;88.61
75942;BME280;64622;46.220;19.878;2023-05-10T05:21:19;100656.12;;;13.60;87.12
75942;BME280;64622;46.220;19.878;2023-05-10T05:23:46;100653.13;;;13.47;86.25
75942;BME280;64622;46.220;19.878;2023-05-10T05:26:12;100654.94;;;13.23;87.04
75942;BME280;64622;46.220;19.878;2023-05-10T05:28:39;100656.56;;;12.92;87.68
75942;BME280;64622;46.220;19.878;2023-05-10T05:31:06;100659.38;;;12.66;88.01
75942;BME280;64622;46.220;19.878;2023-05-10T05:33:37;100658.47;;;12.50;88.92
75942;BME280;64622;46.220;19.878;2023-05-10T05:36:04;100654.44;;;12.54;88.65
75942;BME280;64622;46.220;19.878;2023-05-10T05:38:32;100662.34;;;12.55;88.43
75942;BME280;64622;46.220;19.878;2023-05-10T05:40:58;100667.84;;;12.46;87.76
75942;BME280;64622;46.220;19.878;2023-05-10T05:43:24;100666.72;;;12.56;87.39
75942;BME280;64622;46.220;19.878;2023-05-10T05:45:52;100662.56;;;12.70;87.27
75942;BME280;64622;46.220;19.878;2023-05-10T05:48:20;100659.91;;;12.86;86.27
75942;BME280;64622;46.220;19.878;2023-05-10T05:50:46;100661.75;;;12.85;85.57
75942;BME280;64622;46.220;19.878;2023-05-10T05:53:13;100663.66;;;13.01;84.07
75942;BME280;64622;46.220;19.878;2023-05-10T05:55:40;100668.38;;;13.07;82.72
75942;BME280;64622;46.220;19.878;2023-05-10T05:58:17;100667.00;;;13.03;82.24
75942;BME280;64622;46.220;19.878;2023-05-10T06:00:43;100662.50;;;13.19;81.21
75942;BME280;64622;46.220;19.878;2023-05-10T06:03:10;100665.38;;;13.10;80.74
75942;BME280;64622;46.220;19.878;2023-05-10T06:05:37;100669.31;;;12.90;81.49
75942;BME280;64622;46.220;19.878;2023-05-10T06:08:04;100666.28;;;12.93;81.61
75942;BME280;64622;46.220;19.878;2023-05-10T06:10:30;100665.78;;;12.89;81.51
75942;BME280;64622;46.220;19.878;2023-05-10T06:12:57;100671.22;;;12.97;81.71
75942;BME280;64622;46.220;19.878;2023-05-10T06:15:24;100670.06;;;13.00;82.19
75942;BME280;64622;46.220;19.878;2023-05-10T06:17:51;100677.81;;;13.35;80.96
75942;BME280;64622;46.220;19.878;2023-05-10T06:20:18;100672.13;;;13.54;79.88
75942;BME280;64622;46.220;19.878;2023-05-10T06:22:44;100675.62;;;13.78;79.09
75942;BME280;64622;46.220;19.878;2023-05-10T06:25:11;100677.28;;;13.87;77.21
75942;BME280;64622;46.220;19.878;2023-05-10T06:27:38;100677.41;;;14.26;76.00
75942;BME280;64622;46.220;19.878;2023-05-10T06:30:05;100676.53;;;14.25;74.84
75942;BME280;64622;46.220;19.878;2023-05-10T06:32:32;100696.38;;;14.79;74.06
75942;BME280;64622;46.220;19.878;2023-05-10T06:34:59;100694.19;;;14.74;73.23
75942;BME280;64622;46.220;19.878;2023-05-10T06:37:25;100688.50;;;14.69;72.60
75942;BME280;64622;46.220;19.878;2023-05-10T06:39:52;100692.84;;;14.78;71.51
75942;BME280;64622;46.220;19.878;2023-05-10T06:42:19;100697.44;;;15.23;nan
75942;BME280;64622;46.220;19.878;2023-05-10T06:44:46;100687.72;;;15.44;68.70
75942;BME280;64622;46.220;19.878;2023-05-10T06:47:12;100691.91;;;15.69;67.63
75942;BME280;64622;46.220;19.878;2023-05-10T06:49:39;100682.84;;;15.85;66.10
75942;BME280;64622;46.220;19.878;2023-05-10T06:52:06;100684.53;;;16.00;65.54
75942;BME280;64622;46.220;19.878;2023-05-10T06:54:53;100682.59;;;16.38;65.05
75942;BME280;64622;46.220;19.878;2023-05-10T06:57:19;100689.41;;;16.63;63.34
75942;BME280;64622;46.220;19.878;2023-05-10T06:59:47;100682.47;;;16.89;62.39
75942;BME280;64622;46.220;19.878;2023-05-10T07:02:13;100674.53;;;16.88;61.67
75942;BME280;64622;46.220;19.878;2023-05-10T07:04:41;100682.38;;;16.83;62.67
75942;BME280;64622;46.220;19.878;2023-05-10T07:07:07;100678.88;;;16.82;62.19
75942;BME280;64622;46.220;19.878;2023-05-10T07:09:34;100683.28;;;17.25;61.55
75942;BME280;64622;46.220;19.878;2023-05-10T07:12:01;100670.53;;;17.19;61.03
75942;BME280;64622;46.220;19.878;2023-05-10T07:14:28;100681.84;;;16.73;61.23
75942;BME280;64622;46.220;19.878;2023-05-10T07:16:54;100682.09;;;17.49;59.64
75942;BME280;64622;46.220;19.878;2023-05-10T07:19:21;100674.47;;;17.38;58.07
75942;BME280;64622;46.220;19.878;2023-05-10T07:21:49;100666.09;;;17.12;58.42
75942;BME280;64622;46.220;19.878;2023-05-10T07:24:16;100674.25;;;16.97;58.11
75942;BME280;64622;46.220;19.878;2023-05-10T07:26:43;100671.91;;;17.72;56.01
75942;BME280;64622;46.220;19.878;2023-05-10T07:29:10;100668.34;;;17.92;56.05
75942;BME280;64622;46.220;19.878;2023-05-10T07:31:36;100667.50;;;17.92;54.66
75942;BME280;64622;46.220;19.878;2023-05-10T07:34:06;100668.03;;;18.08;54.32
75942;BME280;64622;46.220;19.878;2023-05-10T07:36:34;100665.62;;;18.26;54.41
75942;BME280;64622;46.220;19.878;2023-05-10T07:39:00;100661.78;;;18.08;54.95
75942;BME280;64622;46.220;19.878;2023-05-10T07:41:28;100658.63;;;19.26;51.52
75942;BME280;64622;46.220;19.878;2023-05-10T07:43:55;100660.16;;;18.13;52.48
75942;BME280;64622;46.220;19.878;2023-05-10T07:46:21;100665.75;;;18.86;50.37
75942;BME280;64622;46.220;19.878;2023-05-10T07:48:48;100659.06;;;18.76;50.44
75942;BME280;64622;46.220;19.878;2023-05-10T07:51:14;100668.75;;;18.57;51.86
75942;BME280;64622;46.220;19.878;2023-05-10T07:53:41;100651.59;;;18.44;52.84
75942;BME280;64622;46.220;19.878;2023-05-10T07:56:26;100665.16;;;18.97;50.17
75942;BME280;64622;46.220;19.878;2023-05-10T07:58:54;100660.06;;;19.22;50.45
75942;BME280;64622;46.220;19.878;2023-05-10T08:01:21;100650.03;;;19.22;49.57
75942;BME280;64622;46.220;19.878;2023-05-10T08:03:48;100666.63;;;18.19;53.40
75942;BME280;64622;46.220;19.878;2023-05-10T08:06:17;100655.13;;;18.91;49.51
75942;BME280;64622;46.220;19.878;2023-05-10T08:08:46;100662.62;;;18.36;52.42
75942;BME280;64622;46.220;19.878;2023-05-10T08:11:16;100668.25;;;16.37;58.71
75942;BME280;64622;46.220;19.878;2023-05-10T08:13:44;100655.41;;;16.25;59.19
75942;BME280;64622;46.220;19.878;2023-05-10T08:16:11;100661.38;;;18.11;55.41
75942;BME280;64622;46.220;19.878;2023-05-10T08:18:38;100656.78;;;19.46;50.00
75942;BME280;64622;46.220;19.878;2023-05-10T08:21:06;100669.19;;;19.08;51.02
75942;BME280;64622;46.220;19.878;2023-05-10T08:23:33;100664.81;;;18.53;53.24
75942;BME280;64622;46.220;19.878;2023-05-10T08:26:00;100656.34;;;18.76;53.21
75942;BME280;64622;46.220;19.878;2023-05-10T08:28:26;100655.78;;;19.00;52.02
75942;BME280;64622;46.220;19.878;2023-05-10T08:30:53;100657.75;;;17.70;55.27
75942;BME280;64622;46.220;19.878;2023-05-10T08:33:20;100647.69;;;19.13;50.79
75942;BME280;64622;46.220;19.878;2023-05-10T08:35:47;100664.91;;;19.39;50.44
75942;BME280;64622;46.220;19.878;2023-05-10T08:38:13;100662.69;;;17.87;53.63
75942;BME280;64622;46.220;19.878;2023-05-10T08:40:42;100656.53;;;18.34;52.93
75942;BME280;64622;46.220;19.878;2023-05-10T08:43:10;100669.47;;;19.26;50.19
75942;BME280;64622;46.220;19.878;2023-05-10T08:45:42;100671.81;;;18.82;50.67
75942;BME280;64622;46.220;19.878;2023-05-10T08:48:10;100661.66;;;19.10;51.74
75942;BME280;64622;46.220;19.878;2023-05-10T08:50:39;100656.03;;;19.11;51.55
75942;BME280;64622;46.220;19.878;2023-05-10T08:53:09;100672.50;;;18.56;53.40
75942;BME280;64622;46.220;19.878;2023-05-10T08:55:37;100654.72;;;18.47;54.42
75942;BME280;64622;46.220;19.878;2023-05-10T08:58:05;100659.38;;;19.20;51.28
75942;BME280;64622;46.220;19.878;2023-05-10T09:00:32;100643.34;;;18.58;53.83
75942;BME280;64622;46.220;19.878;2023-05-10T09:03:00;100651.72;;;18.70;53.57
75942;BME280;64622;46.220;19.878;2023-05-10T09:05:27;100653.06;;;19.00;52.23
75942;BME280;64622;46.220;19.878;2023-05-10T09:07:54;100641.31;;;19.98;48.84
75942;BME280;64622;46.220;19.878;2023-05-10T09:10:22;100634.41;;;19.70;50.41
75942;BME280;64622;46.220;19.878;2023-05-10T09:12:53;100611.00;;;20.71;47.35
75942;BME280;64622;46.220;19.878;2023-05-10T09:15:20;100642.12;;;20.05;48.54
75942;BME280;64622;46.220;19.878;2023-05-10T09:17:49;100629.38;;;20.19;48.61
75942;BME280;64622;46.220;19.878;2023-05-10T09:20:15;100630.91;;;20.65;46.35
75942;BME280;64622;46.220;19.878;2023-05-10T09:22:43;100639.41;;;18.67;51.31
75942;BME280;64622;46.220;19.878;2023-05-10T09:25:13;100635.34;;;17.82;55.53
75942;BME280;64622;46.220;19.878;2023-05-10T09:27:41;100633.41;;;18.78;51.62
75942;BME280;64622;46.220;19.878;2023-05-10T09:30:16;100641.00;;;20.52;47.94
75942;BME280;64622;46.220;19.878;2023-05-10T09:32:45;100635.06;;;20.11;48.46
75942;BME280;64622;46.220;19.878;2023-05-10T09:35:18;100632.97;;;19.87;48.44
75942;BME280;64622;46.220;19.878;2023-05-10T09:37:47;100623.53;;;20.15;47.94
75942;BME280;64622;46.220;19.878;2023-05-10T09:40:24;100626.50;;;21.08;46.86
75942;BME280;64622;46.220;19.878;2023-05-10T09:42:52;100617.44;;;21.52;45.74
75942;BME280;64622;46.220;19.878;2023-05-10T09:45:21;100625.03;;;19.59;49.92
75942;BME280;64622;46.220;19.878;2023-05-10T09:47:48;100617.44;;;21.21;45.54
75942;BME280;64622;46.220;19.878;2023-05-10T09:50:14;100622.06;;;20.19;47.74
75942;BME280;64622;46.220;19.878;2023-05-10T09:55:22;100629.28;;;18.42;53.21
75942;BME280;64622;46.220;19.878;2023-05-10T09:57:57;100608.31;;;19.69;49.36
75942;BME280;64622;46.220;19.878;2023-05-10T10:00:24;100618.56;;;19.67;48.83
75942;BME280;64622;46.220;19.878;2023-05-10T10:02:58;100624.09;;;19.20;49.49
75942;BME280;64622;46.220;19.878;2023-05-10T10:05:35;100607.63;;;20.25;46.90
75942;BME280;64622;46.220;19.878;2023-05-10T10:08:03;100605.75;;;20.19;47.43
75942;BME280;64622;46.220;19.878;2023-05-10T10:10:31;100598.41;;;19.03;49.15
75942;BME280;64622;46.220;19.878;2023-05-10T10:12:58;100615.31;;;19.11;48.91
75942;BME280;64622;46.220;19.878;2023-05-10T10:15:25;100605.59;;;19.88;47.40
75942;BME280;64622;46.220;19.878;2023-05-10T10:17:53;100603.06;;;19.80;47.72
75942;BME280;64622;46.220;19.878;2023-05-10T10:20:21;100608.16;;;21.28;44.36
75942;BME280;64622;46.220;19.878;2023-05-10T10:22:49;100611.16;;;21.20;45.70
75942;BME280;64622;46.220;19.878;2023-05-10T10:25:17;100598.25;;;20.02;46.54
75942;BME280;64622;46.220;19.878;2023-05-10T10:30:28;100610.16;;;18.22;53.68
75942;BME280;64622;46.220;19.878;2023-05-10T10:35:37;100588.16;;;20.72;47.02
75942;BME280;64622;46.220;19.878;2023-05-10T10:38:07;100575.09;;;21.98;43.41
75942;BME280;64622;46.220;19.878;2023-05-10T10:40:34;100603.50;;;19.71;49.12
75942;BME280;64622;46.220;19.878;2023-05-10T10:43:22;100593.44;;;20.10;47.08
75942;BME280;64622;46.220;19.878;2023-05-10T10:46:14;100588.94;;;20.48;47.10
75942;BME280;64622;46.220;19.878;2023-05-10T10:49:09;100580.75;;;21.23;44.51
75942;BME280;64622;46.220;19.878;2023-05-10T10:51:37;100590.56;;;21.00;44.45
75942;BME280;64622;46.220;19.878;2023-05-10T10:54:10;100586.53;;;21.89;42.98
75942;BME280;64622;46.220;19.878;2023-05-10T10:56:37;100577.28;;;21.65;42.69
75942;BME280;64622;46.220;19.878;2023-05-10T10:59:04;100564.22;;;21.49;44.82
75942;BME280;64622;46.220;19.878;2023-05-10T11:01:34;100565.50;;;22.14;41.68
75942;BME280;64622;46.220;19.878;2023-05-10T11:04:17;100561.19;;;20.71;44.87
75942;BME280;64622;46.220;19.878;2023-05-10T11:06:44;100563.28;;;20.25;45.99
75942;BME280;64622;46.220;19.878;2023-05-10T11:09:12;100548.84;;;20.68;45.67
75942;BME280;64622;46.220;19.878;2023-05-10T11:11:50;100555.09;;;21.37;43.02
75942;BME280;64622;46.220;19.878;2023-05-10T11:14:20;100541.31;;;20.26;45.01
75942;BME280;64622;46.220;19.878;2023-05-10T11:16:48;100553.13;;;19.75;45.97
75942;BME280;64622;46.220;19.878;2023-05-10T11:19:16;100542.63;;;21.23;42.76
75942;BME280;64622;46.220;19.878;2023-05-10T11:24:19;100549.94;;;22.68;40.51
75942;BME280;64622;46.220;19.878;2023-05-10T11:26:49;100551.28;;;22.12;39.77
75942;BME280;64622;46.220;19.878;2023-05-10T11:29:16;100532.31;;;22.53;39.24
75942;BME280;64622;46.220;19.878;2023-05-10T11:31:47;100529.44;;;21.51;40.83
75942;BME280;64622;46.220;19.878;2023-05-10T11:36:52;100544.81;;;20.40;42.10
75942;BME280;64622;46.220;19.878;2023-05-10T11:39:21;100538.22;;;20.16;42.80
75942;BME280;64622;46.220;19.878;2023-05-10T11:41:49;100539.94;;;19.98;43.70
75942;BME280;64622;46.220;19.878;2023-05-10T11:44:16;100528.19;;;20.04;44.19
75942;BME280;64622;46.220;19.878;2023-05-10T11:46:42;100535.63;;;19.64;45.41
75942;BME280;64622;46.220;19.878;2023-05-10T11:49:09;100532.91;;;19.71;45.88
75942;BME280;64622;46.220;19.878;2023-05-10T11:51:36;100532.53;;;20.31;45.00
75942;BME280;64622;46.220;19.878;2023-05-10T11:54:08;100531.87;;;20.35;45.11
75942;BME280;64622;46.220;19.878;2023-05-10T11:56:39;100534.22;;;20.25;45.07
75942;BME280;64622;46.220;19.878;2023-05-10T11:59:07;100529.34;;;19.77;44.42
75942;BME280;64622;46.220;19.878;2023-05-10T12:01:34;100549.00;;;19.46;44.08
75942;BME280;64622;46.220;19.878;2023-05-10T12:04:02;100535.47;;;20.29;42.98
75942;BME280;64622;46.220;19.878;2023-05-10T12:06:31;100528.69;;;20.45;43.36
75942;BME280;64622;46.220;19.878;2023-05-10T12:08:58;100522.66;;;19.60;45.71
75942;BME280;64622;46.220;19.878;2023-05-10T12:11:26;100531.63;;;19.02;48.05
75942;BME280;64622;46.220;19.878;2023-05-10T12:13:54;100532.69;;;19.14;48.09
75942;BME280;64622;46.220;19.878;2023-05-10T12:16:23;100538.75;;;19.09;48.30
75942;BME280;64622;46.220;19.878;2023-05-10T12:18:51;100535.41;;;19.01;47.81
75942;BME280;64622;46.220;19.878;2023-05-10T12:21:19;100518.87;;;19.02;47.41
75942;BME280;64622;46.220;19.878;2023-05-10T12:23:48;100519.53;;;18.98;46.99
75942;BME280;64622;46.220;19.878;2023-05-10T12:26:15;100538.16;;;19.27;46.54
75942;BME280;64622;46.220;19.878;2023-05-10T12:28:42;100528.28;;;18.93;47.74
75942;BME280;64622;46.220;19.878;2023-05-10T12:31:08;100527.66;;;18.98;48.34
75942;BME280;64622;46.220;19.878;2023-05-10T12:33:45;100531.44;;;19.16;48.48
75942;BME280;64622;46.220;19.878;2023-05-10T12:36:14;100521.38;;;18.84;48.73
75942;BME280;64622;46.220;19.878;2023-05-10T12:38:42;100511.59;;;19.09;47.67
75942;BME280;64622;46.220;19.878;2023-05-10T12:41:14;100507.63;;;19.05;46.91
75942;BME280;64622;46.220;19.878;2023-05-10T12:43:42;100508.25;;;19.20;46.15
75942;BME280;64622;46.220;19.878;2023-05-10T12:46:13;100507.47;;;19.46;45.81
75942;BME280;64622;46.220;19.878;2023-05-10T12:48:42;100503.16;;;20.08;45.28
75942;BME280;64622;46.220;19.878;2023-05-10T12:51:09;100494.97;;;20.83;44.31
75942;BME280;64622;46.220;19.878;2023-05-10T12:53:38;100490.31;;;21.21;42.33
75942;BME280;64622;46.220;19.878;2023-05-10T12:56:05;100503.47;;;22.09;40.47
75942;BME280;64622;46.220;19.878;2023-05-10T12:58:32;100493.53;;;22.33;39.53
75942;BME280;64622;46.220;19.878;2023-05-10T13:00:59;100491.16;;;22.54;39.74
75942;BME280;64622;46.220;19.878;2023-05-10T13:03:26;100482.62;;;22.92;37.65
75942;BME280;64622;46.220;19.878;2023-05-10T13:05:52;100476.00;;;22.99;37.64
75942;BME280;64622;46.220;19.878;2023-05-10T13:08:19;100468.22;;;22.85;38.34
75942;BME280;64622;46.220;19.878;2023-05-10T13:10:45;100476.63;;;23.24;38.59
75942;BME280;64622;46.220;19.878;2023-05-10T13:13:12;100478.53;;;23.47;37.58
75942;BME280;64622;46.220;19.878;2023-05-10T13:15:39;100472.25;;;23.35;36.95
75942;BME280;64622;46.220;19.878;2023-05-10T13:18:05;100453.19;;;23.86;36.38